Time;durP1;ratioP1;P1;durP2;ratioP2;P2;SDS_P1;SDS_P2;PMS_P1;PMS_P2;Temp;Humidity;BMP_temperature;BMP_pressure;BME280_temperature;BME280_humidity;BME280_pressure;Samples;Min_cycle;Max_cycle;Signal;HPM_P1;HPM_P2
2023/02/03 00:01:34;;;;;;;71.43;10.33;;;9.40;99.90;;;;;;4975635;28;20188;-86
2023/02/03 00:04:00;;;;;;;74.27;9.37;;;9.40;99.90;;;;;;4974736;28;20418;-86
2023/02/03 00:06:26;;;;;;;76.20;10.93;;;9.40;99.90;;;;;;4974145;28;20176;-87
2023/02/03 00:08:58;;;;;;;68.00;9.80;;;9.40;99.90;;;;;;4941902;29;20253;-87
2023/02/03 00:11:24;;;;;;;72.15;9.68;;;9.50;99.90;;;;;;4974366;28;20191;-86
2023/02/03 00:13:50;;;;;;;73.22;10.77;;;9.50;99.90;;;;;;4974168;28;20179;-87
2023/02/03 00:16:19;;;;;;;68.70;8.43;;;9.50;99.90;;;;;;4974478;29;20187;-86
2023/02/03 00:18:44;;;;;;;74.68;11.93;;;9.50;99.90;;;;;;4957239;29;20175;-87
2023/02/03 00:21:14;;;;;;;71.67;10.30;;;9.40;99.90;;;;;;4974100;28;20224;-86
2023/02/03 00:23:40;;;;;;;74.85;9.13;;;9.40;99.90;;;;;;4956566;29;20171;-86
2023/02/03 00:26:08;;;;;;;72.03;10.20;;;9.40;99.90;;;;;;4973051;28;20171;-86
2023/02/03 00:28:33;;;;;;;69.28;9.90;;;9.50;99.90;;;;;;4972659;28;20199;-87
2023/02/03 00:30:59;;;;;;;74.00;10.23;;;9.40;99.90;;;;;;4972883;28;20267;-87
2023/02/03 00:33:25;;;;;;;71.23;9.00;;;9.40;99.90;;;;;;4973305;28;20422;-86
2023/02/03 00:35:51;;;;;;;71.97;9.53;;;9.50;99.90;;;;;;4972387;28;20547;-87
2023/02/03 00:38:16;;;;;;;73.60;8.60;;;9.50;99.90;;;;;;4956599;29;20473;-87
2023/02/03 00:40:53;;;;;;;73.93;13.63;;;9.40;99.90;;;;;;4956136;29;20207;-87
2023/02/03 00:43:19;;;;;;;78.15;13.95;;;9.50;99.90;;;;;;4973114;29;20156;-87
2023/02/03 00:45:45;;;;;;;71.15;8.80;;;9.40;99.90;;;;;;4972697;28;20573;-87
2023/02/03 00:48:11;;;;;;;69.40;8.70;;;9.50;99.90;;;;;;4972897;28;20172;-86
2023/02/03 00:50:37;;;;;;;68.55;8.80;;;9.50;99.90;;;;;;4973406;28;20187;-86
2023/02/03 00:53:03;;;;;;;72.10;9.87;;;9.50;99.90;;;;;;4973622;28;20278;-86
2023/02/03 00:55:28;;;;;;;72.63;9.40;;;9.50;99.90;;;;;;4956483;29;20430;-87
2023/02/03 00:57:54;;;;;;;72.27;8.73;;;9.50;99.90;;;;;;4956311;29;20248;-86
2023/02/03 01:00:20;;;;;;;72.50;11.00;;;9.50;99.90;;;;;;4972408;28;20164;-86
2023/02/03 01:02:46;;;;;;;74.90;10.27;;;9.50;99.90;;;;;;4973006;28;20172;-86
2023/02/03 01:05:12;;;;;;;70.20;11.45;;;9.50;99.90;;;;;;4955975;29;20411;-87
2023/02/03 01:07:38;;;;;;;71.07;8.23;;;9.50;99.90;;;;;;4973448;29;20175;-86
2023/02/03 01:10:04;;;;;;;76.63;9.00;;;9.50;99.90;;;;;;4956054;29;20180;-86
2023/02/03 01:12:31;;;;;;;71.38;9.45;;;9.50;99.90;;;;;;4955873;29;20498;-87
2023/02/03 01:14:57;;;;;;;71.53;8.35;;;9.50;99.90;;;;;;4973269;29;20172;-86
2023/02/03 01:17:24;;;;;;;68.15;7.65;;;9.50;99.90;;;;;;4956286;29;20203;-86
2023/02/03 01:19:51;;;;;;;72.00;7.50;;;9.50;99.90;;;;;;4972546;29;20171;-86
2023/02/03 01:22:18;;;;;;;70.50;8.50;;;9.50;99.90;;;;;;4956354;29;20226;-87
2023/02/03 01:24:44;;;;;;;75.20;8.00;;;9.50;99.90;;;;;;4973151;28;20231;-86
2023/02/03 01:27:10;;;;;;;70.07;7.17;;;9.60;99.90;;;;;;4956395;28;20264;-85
2023/02/03 01:29:36;;;;;;;69.53;9.05;;;9.60;99.90;;;;;;4973100;29;20170;-86
2023/02/03 01:32:02;;;;;;;70.37;7.10;;;9.60;99.90;;;;;;4955924;29;20215;-87
2023/02/03 01:34:28;;;;;;;71.87;9.07;;;9.60;99.90;;;;;;4956142;29;20425;-86
2023/02/03 01:36:54;;;;;;;73.20;9.07;;;9.60;99.90;;;;;;4955861;29;20529;-86
2023/02/03 01:39:19;;;;;;;68.30;7.30;;;9.60;99.90;;;;;;4972554;28;20168;-86
2023/02/03 01:41:45;;;;;;;72.03;10.70;;;9.60;99.90;;;;;;4955822;29;20194;-87
2023/02/03 01:44:50;;;;;;;70.60;8.67;;;9.60;99.90;;;;;;4971415;29;20411;-86
2023/02/03 01:47:25;;;;;;;68.55;8.02;;;9.70;99.90;;;;;;4971434;29;20475;-86
2023/02/03 01:50:13;;;;;;;68.70;9.73;;;9.60;99.90;;;;;;4972597;29;20163;-86
2023/02/03 01:52:42;;;;;;;71.75;10.98;;;9.60;99.90;;;;;;4972726;28;20171;-87
2023/02/03 01:55:12;;;;;;;69.55;7.75;;;9.60;99.90;;;;;;4971997;28;20180;-86
2023/02/03 01:58:26;;;;;;;71.25;8.40;;;9.60;99.90;;;;;;4955480;29;20222;-87
2023/02/03 02:00:54;;;;;;;78.82;11.55;;;9.60;99.90;;;;;;4875675;29;20221;-87
2023/02/03 02:03:24;;;;;;;75.20;8.85;;;9.60;99.90;;;;;;4859895;29;20239;-87
2023/02/03 02:05:56;;;;;;;70.68;11.38;;;9.60;99.90;;;;;;4930725;28;20702;-87
2023/02/03 02:08:22;;;;;;;68.32;7.38;;;9.60;99.90;;;;;;4971480;29;20187;-86
2023/02/03 02:10:48;;;;;;;71.63;7.70;;;9.60;99.90;;;;;;5085497;23;20296;-87
2023/02/03 02:13:16;;;;;;;68.27;7.80;;;9.60;99.90;;;;;;5001928;28;20402;-87
2023/02/03 02:16:07;;;;;;;68.97;7.68;;;9.60;99.90;;;;;;4983857;28;20456;-87
2023/02/03 02:18:57;;;;;;;68.05;6.75;;;9.60;99.90;;;;;;5001924;28;20162;-87
2023/02/03 02:21:40;;;;;;;70.05;8.15;;;9.60;99.90;;;;;;4984423;28;20269;-87
2023/02/03 02:24:42;;;;;;;71.93;7.53;;;9.60;99.90;;;;;;5001406;28;20155;-87
2023/02/03 02:27:33;;;;;;;68.07;7.88;;;9.60;99.90;;;;;;4984468;28;20656;-87
2023/02/03 02:30:29;;;;;;;67.20;8.25;;;9.60;99.90;;;;;;5002220;28;20158;-87
2023/02/03 02:33:12;;;;;;;68.65;7.90;;;9.60;99.90;;;;;;5002214;28;20174;-87
2023/02/03 02:35:41;;;;;;;67.15;5.82;;;9.60;99.90;;;;;;5001190;28;20218;-87
2023/02/03 02:38:12;;;;;;;71.95;8.40;;;9.60;99.90;;;;;;4984122;28;20159;-87
2023/02/03 02:40:59;;;;;;;67.93;7.05;;;9.50;99.90;;;;;;5002721;28;20186;-87
2023/02/03 02:43:34;;;;;;;75.38;9.30;;;9.50;99.90;;;;;;5001855;28;20232;-86
2023/02/03 02:46:11;;;;;;;68.30;6.10;;;9.60;99.90;;;;;;5005691;28;20190;-87
2023/02/03 02:48:36;;;;;;;68.78;9.15;;;9.50;99.90;;;;;;4988544;28;20630;-86
2023/02/03 02:51:05;;;;;;;72.50;7.20;;;9.50;99.90;;;;;;4988224;28;20197;-87
2023/02/03 02:53:43;;;;;;;73.10;7.47;;;9.50;99.90;;;;;;4988314;28;20171;-87
2023/02/03 02:56:11;;;;;;;65.68;6.43;;;9.50;99.90;;;;;;5005951;28;20522;-87
2023/02/03 02:58:40;;;;;;;67.78;6.65;;;9.60;99.90;;;;;;5005275;28;20159;-86
2023/02/03 03:01:08;;;;;;;72.53;6.93;;;9.50;99.90;;;;;;5005294;28;20182;-87
2023/02/03 03:03:34;;;;;;;66.95;6.53;;;9.50;99.90;;;;;;5004927;28;20224;-86
2023/02/03 03:06:04;;;;;;;69.07;7.87;;;9.60;99.90;;;;;;5006208;28;20245;-86
2023/02/03 03:08:40;;;;;;;71.80;7.68;;;9.50;99.90;;;;;;4988136;28;20170;-86
2023/02/03 03:11:06;;;;;;;71.43;9.73;;;9.50;99.90;;;;;;5005809;28;20205;-87
2023/02/03 03:13:37;;;;;;;72.07;13.80;;;9.50;99.90;;;;;;5005923;28;20171;-87
2023/02/03 03:16:06;;;;;;;70.65;8.50;;;9.60;99.90;;;;;;4986785;28;20445;-86
2023/02/03 03:18:42;;;;;;;71.53;6.80;;;9.50;99.90;;;;;;5005307;28;20220;-86
2023/02/03 03:21:12;;;;;;;71.13;7.32;;;9.60;99.90;;;;;;4987253;28;20277;-87
2023/02/03 03:23:41;;;;;;;79.53;10.65;;;9.50;99.90;;;;;;5005828;28;20163;-87
2023/02/03 03:26:16;;;;;;;69.45;6.47;;;9.60;99.90;;;;;;5006248;28;20170;-86
2023/02/03 03:28:53;;;;;;;70.10;9.20;;;9.60;99.90;;;;;;5073909;23;20214;-84
2023/02/03 03:31:19;;;;;;;67.25;8.85;;;9.60;99.90;;;;;;4985333;28;20190;-85
2023/02/03 03:33:46;;;;;;;71.07;7.65;;;9.60;99.90;;;;;;5001768;28;20181;-84
2023/02/03 03:36:19;;;;;;;69.13;11.95;;;9.60;99.90;;;;;;5002892;28;20642;-85
2023/02/03 03:39:15;;;;;;;67.22;7.30;;;9.60;99.90;;;;;;5003526;28;20304;-84
2023/02/03 03:41:47;;;;;;;67.68;8.20;;;9.50;99.90;;;;;;4985142;28;20186;-84
2023/02/03 03:44:15;;;;;;;71.70;10.10;;;9.60;99.90;;;;;;5002215;28;20194;-85
2023/02/03 03:46:50;;;;;;;69.40;9.20;;;9.60;99.90;;;;;;4984935;28;20175;-84
2023/02/03 03:49:18;;;;;;;69.60;7.60;;;9.60;99.90;;;;;;5002200;28;20195;-84
2023/02/03 03:51:53;;;;;;;69.82;7.70;;;9.50;99.90;;;;;;4984817;28;20190;-84
2023/02/03 03:54:22;;;;;;;70.88;7.72;;;9.60;99.90;;;;;;4984404;28;20172;-84
2023/02/03 03:57:01;;;;;;;67.90;9.98;;;9.60;99.90;;;;;;5001612;28;20265;-84
2023/02/03 03:59:31;;;;;;;69.35;7.30;;;9.50;99.90;;;;;;5001743;28;20165;-84
2023/02/03 04:02:03;;;;;;;69.90;7.75;;;9.50;99.90;;;;;;4984370;28;20257;-84
2023/02/03 04:04:31;;;;;;;71.75;6.35;;;9.50;99.90;;;;;;5002515;28;20151;-84
2023/02/03 04:06:57;;;;;;;76.18;9.80;;;9.60;99.90;;;;;;4984890;28;20163;-85
2023/02/03 04:09:23;;;;;;;72.03;7.83;;;9.60;99.90;;;;;;4985238;28;20171;-84
2023/02/03 04:12:01;;;;;;;69.88;9.40;;;9.60;99.90;;;;;;5001826;28;20225;-84
2023/02/03 04:14:29;;;;;;;69.20;10.30;;;9.60;99.90;;;;;;4984527;28;20163;-85
2023/02/03 04:16:55;;;;;;;72.95;7.85;;;9.60;99.90;;;;;;5002272;28;20187;-85
2023/02/03 04:19:21;;;;;;;67.93;7.22;;;9.50;99.90;;;;;;4984272;28;20166;-85
2023/02/03 04:21:46;;;;;;;75.47;10.70;;;9.50;99.90;;;;;;5001549;28;20214;-84
2023/02/03 04:24:12;;;;;;;68.50;9.87;;;9.50;99.90;;;;;;5001660;28;20166;-84
2023/02/03 04:26:39;;;;;;;73.50;7.87;;;9.50;99.90;;;;;;5001730;28;20166;-84
2023/02/03 04:29:05;;;;;;;69.22;7.15;;;9.50;99.90;;;;;;4983626;28;20237;-84
2023/02/03 04:31:32;;;;;;;68.67;8.67;;;9.50;99.90;;;;;;4984387;28;20190;-84
2023/02/03 04:33:57;;;;;;;69.47;6.70;;;9.50;99.90;;;;;;5000589;28;20398;-84
2023/02/03 04:36:23;;;;;;;66.00;6.13;;;9.50;99.90;;;;;;4983678;28;20240;-84
2023/02/03 04:38:49;;;;;;;68.80;6.03;;;9.50;99.90;;;;;;5000903;28;20182;-84
2023/02/03 04:41:16;;;;;;;67.10;6.63;;;9.50;99.90;;;;;;5001263;28;20610;-84
2023/02/03 04:43:41;;;;;;;68.85;10.98;;;9.50;99.90;;;;;;4983595;28;20163;-84
2023/02/03 04:46:07;;;;;;;68.77;8.40;;;9.50;99.90;;;;;;5001649;28;20213;-85
2023/02/03 04:48:33;;;;;;;71.00;6.53;;;9.50;99.90;;;;;;4983205;28;20406;-84
2023/02/03 04:51:03;;;;;;;65.83;5.50;;;9.60;99.90;;;;;;5000838;28;20425;-84
2023/02/03 04:53:30;;;;;;;71.38;8.75;;;9.60;99.90;;;;;;4982950;28;20174;-84
2023/02/03 04:55:56;;;;;;;72.22;6.00;;;9.60;99.90;;;;;;5001450;28;20654;-84
2023/02/03 04:58:21;;;;;;;70.90;8.17;;;9.50;99.90;;;;;;4983909;28;20177;-84
2023/02/03 05:00:47;;;;;;;68.07;6.43;;;9.60;99.90;;;;;;4983472;28;20289;-84
2023/02/03 05:03:13;;;;;;;69.07;6.50;;;9.60;99.90;;;;;;4982820;28;20167;-84
2023/02/03 05:05:38;;;;;;;65.80;6.57;;;9.60;99.90;;;;;;5000444;28;20638;-84
2023/02/03 05:08:04;;;;;;;70.17;6.80;;;9.50;99.90;;;;;;4999347;28;20170;-84
2023/02/03 05:10:30;;;;;;;68.40;6.60;;;9.60;99.90;;;;;;5001032;28;20191;-84
2023/02/03 05:12:55;;;;;;;68.37;7.83;;;9.50;99.90;;;;;;4983049;28;20242;-85
2023/02/03 05:15:21;;;;;;;70.07;7.50;;;9.50;99.90;;;;;;4983606;28;20629;-84
2023/02/03 05:17:47;;;;;;;67.47;6.57;;;9.50;99.90;;;;;;4983842;28;20288;-84
2023/02/03 05:20:12;;;;;;;72.60;10.00;;;9.60;99.90;;;;;;4983455;28;20255;-84
2023/02/03 05:22:38;;;;;;;70.37;6.40;;;9.60;99.90;;;;;;5000363;28;20634;-84
2023/02/03 05:25:04;;;;;;;67.37;6.90;;;9.50;99.90;;;;;;5000804;28;20526;-84
2023/02/03 05:27:30;;;;;;;68.50;6.72;;;9.50;99.90;;;;;;4983208;28;20434;-85
2023/02/03 05:29:56;;;;;;;73.23;9.60;;;9.60;99.90;;;;;;5000849;28;20570;-84
2023/02/03 05:32:21;;;;;;;73.67;12.40;;;9.60;99.90;;;;;;5000724;28;20197;-84
2023/02/03 05:34:47;;;;;;;69.70;7.47;;;9.60;99.90;;;;;;4982763;28;20638;-84
2023/02/03 05:37:13;;;;;;;68.47;7.27;;;9.50;99.90;;;;;;5000178;28;20272;-85
2023/02/03 05:39:38;;;;;;;69.20;6.50;;;9.60;99.90;;;;;;5000226;28;20206;-84
2023/02/03 05:42:04;;;;;;;69.43;7.93;;;9.50;99.90;;;;;;5000590;28;20597;-84
2023/02/03 05:44:30;;;;;;;66.80;6.43;;;9.50;99.90;;;;;;5000116;28;20546;-84
2023/02/03 05:46:57;;;;;;;79.73;7.00;;;9.50;99.90;;;;;;4999884;28;20209;-84
2023/02/03 05:49:24;;;;;;;70.25;6.57;;;9.50;99.90;;;;;;5000446;28;20570;-84
2023/02/03 05:51:51;;;;;;;69.75;10.40;;;9.50;99.90;;;;;;4999711;28;20183;-84
2023/02/03 05:54:16;;;;;;;68.15;6.90;;;9.50;99.90;;;;;;4982782;28;20174;-84
2023/02/03 05:56:42;;;;;;;67.00;7.20;;;9.50;99.90;;;;;;4982222;28;20190;-85
2023/02/03 05:59:08;;;;;;;66.67;7.80;;;9.50;99.90;;;;;;5000064;28;20171;-84
2023/02/03 06:01:35;;;;;;;72.53;14.17;;;9.50;99.90;;;;;;4982653;28;20417;-85
2023/02/03 06:04:01;;;;;;;71.03;9.30;;;9.50;99.90;;;;;;4982653;28;20409;-84
2023/02/03 06:06:32;;;;;;;68.65;10.55;;;9.50;99.90;;;;;;4999508;28;20178;-83
2023/02/03 06:09:06;;;;;;;69.03;6.53;;;9.50;99.90;;;;;;4999419;28;20182;-84
2023/02/03 06:11:32;;;;;;;70.38;7.10;;;9.50;99.90;;;;;;4981975;28;20598;-84
2023/02/03 06:13:58;;;;;;;79.72;10.75;;;9.60;99.90;;;;;;4999660;28;20266;-84
2023/02/03 06:16:28;;;;;;;70.80;8.05;;;9.60;99.90;;;;;;4982073;28;20190;-84
2023/02/03 06:18:57;;;;;;;68.28;7.43;;;9.60;99.90;;;;;;4984823;28;20692;-84
2023/02/03 06:21:22;;;;;;;67.13;5.97;;;9.60;99.90;;;;;;5005897;28;20186;-82
2023/02/03 06:23:48;;;;;;;69.43;8.17;;;9.60;99.90;;;;;;4988437;28;20163;-84
2023/02/03 06:26:14;;;;;;;66.30;5.83;;;9.60;99.90;;;;;;4988111;28;20181;-83
2023/02/03 06:28:40;;;;;;;70.60;6.53;;;9.60;99.90;;;;;;4988232;28;20182;-83
2023/02/03 06:31:06;;;;;;;69.30;7.00;;;9.60;99.90;;;;;;5005345;28;20436;-84
2023/02/03 06:33:32;;;;;;;68.72;8.82;;;9.60;99.90;;;;;;4988165;28;20261;-83
2023/02/03 06:35:58;;;;;;;70.13;14.55;;;9.60;99.90;;;;;;5005615;28;20269;-84
2023/02/03 06:38:24;;;;;;;70.18;7.35;;;9.70;99.90;;;;;;4987456;28;20179;-83
2023/02/03 06:40:50;;;;;;;66.40;8.03;;;9.70;99.90;;;;;;5005807;28;20190;-83
2023/02/03 06:43:18;;;;;;;67.15;7.55;;;9.70;99.90;;;;;;4987959;28;20221;-83
2023/02/03 06:45:46;;;;;;;71.72;6.80;;;9.70;99.90;;;;;;4987777;28;20178;-83
2023/02/03 06:48:12;;;;;;;68.47;7.07;;;9.70;99.90;;;;;;4987305;28;20178;-83
2023/02/03 06:50:37;;;;;;;66.82;10.30;;;9.70;99.90;;;;;;5005262;28;20688;-83
2023/02/03 06:53:03;;;;;;;69.07;10.70;;;9.70;99.90;;;;;;5004886;28;20166;-83
2023/02/03 06:55:29;;;;;;;71.33;8.73;;;9.70;99.90;;;;;;4988470;28;20162;-83
2023/02/03 06:57:55;;;;;;;69.20;7.88;;;9.70;99.90;;;;;;4987458;28;20574;-82
2023/02/03 07:00:21;;;;;;;72.07;7.80;;;9.70;99.90;;;;;;5004933;28;20159;-83
2023/02/03 07:02:53;;;;;;;68.88;8.75;;;9.70;99.90;;;;;;5003968;28;20166;-82
2023/02/03 07:05:19;;;;;;;72.97;9.40;;;9.70;99.90;;;;;;5004796;28;20174;-83
2023/02/03 07:07:45;;;;;;;68.70;12.53;;;9.70;99.90;;;;;;5004829;28;20167;-83
2023/02/03 07:10:10;;;;;;;72.07;9.93;;;9.70;99.90;;;;;;5004402;28;20415;-82
2023/02/03 07:12:36;;;;;;;67.50;10.03;;;9.70;99.90;;;;;;5004833;28;20677;-83
2023/02/03 07:15:03;;;;;;;68.00;9.90;;;9.70;99.90;;;;;;5004714;28;20177;-83
2023/02/03 07:17:29;;;;;;;70.25;10.23;;;9.70;99.90;;;;;;5004149;28;20190;-83
2023/02/03 07:19:55;;;;;;;70.77;8.57;;;9.70;99.90;;;;;;5004866;28;20615;-83
2023/02/03 07:22:20;;;;;;;68.63;9.37;;;9.70;99.90;;;;;;4987245;28;20444;-83
2023/02/03 07:24:46;;;;;;;68.90;10.10;;;9.70;99.90;;;;;;5004785;28;20163;-83
2023/02/03 07:27:12;;;;;;;82.20;14.43;;;9.70;99.90;;;;;;5004876;28;20167;-82
2023/02/03 07:29:37;;;;;;;67.90;8.60;;;9.70;99.90;;;;;;5004401;28;20170;-83
2023/02/03 07:32:03;;;;;;;68.80;10.33;;;9.70;99.90;;;;;;5000740;28;20244;-83
2023/02/03 07:34:29;;;;;;;71.07;9.03;;;9.70;99.90;;;;;;5001301;28;20171;-82
2023/02/03 07:36:55;;;;;;;72.00;12.93;;;9.80;99.90;;;;;;5001422;28;20566;-83
2023/02/03 07:39:21;;;;;;;66.43;9.07;;;9.70;99.90;;;;;;5001457;28;20249;-83
2023/02/03 07:41:47;;;;;;;68.37;8.73;;;9.70;99.90;;;;;;5001066;28;20214;-82
2023/02/03 07:44:12;;;;;;;72.80;10.43;;;9.80;99.90;;;;;;5001461;28;20197;-83
2023/02/03 07:46:43;;;;;;;67.37;9.27;;;9.80;99.90;;;;;;5002853;28;20226;-83
2023/02/03 07:49:10;;;;;;;68.88;9.43;;;9.80;99.90;;;;;;5002248;28;20151;-83
2023/02/03 07:51:36;;;;;;;69.90;9.85;;;9.80;99.90;;;;;;5002066;28;20209;-82
2023/02/03 07:54:01;;;;;;;67.93;12.00;;;9.80;99.90;;;;;;5001404;28;20186;-83
2023/02/03 07:56:29;;;;;;;69.30;10.17;;;9.80;99.90;;;;;;5001668;28;20190;-83
2023/02/03 07:58:55;;;;;;;77.55;10.63;;;9.80;99.90;;;;;;4983779;28;20174;-83
2023/02/03 08:01:22;;;;;;;68.80;8.57;;;9.80;99.90;;;;;;5001293;28;20190;-83
2023/02/03 08:03:47;;;;;;;68.95;11.38;;;9.80;99.90;;;;;;5001463;28;20409;-84
2023/02/03 08:06:14;;;;;;;69.50;8.77;;;9.80;99.90;;;;;;4983879;28;20174;-83
2023/02/03 08:08:40;;;;;;;68.53;8.77;;;9.80;99.90;;;;;;4984035;28;20202;-83
2023/02/03 08:11:06;;;;;;;71.57;10.02;;;9.90;99.90;;;;;;5001324;28;20182;-83
2023/02/03 08:13:32;;;;;;;65.50;8.80;;;9.90;99.90;;;;;;4983762;28;20274;-83
2023/02/03 08:15:58;;;;;;;67.27;10.00;;;9.90;99.90;;;;;;4984427;28;20187;-82
2023/02/03 08:18:23;;;;;;;72.03;7.60;;;9.90;99.90;;;;;;5001581;28;20166;-83
2023/02/03 08:20:49;;;;;;;69.60;11.70;;;9.90;99.90;;;;;;5000939;28;20175;-83
2023/02/03 08:23:15;;;;;;;69.13;9.70;;;9.90;99.90;;;;;;5001006;28;20166;-83
2023/02/03 08:25:41;;;;;;;69.27;8.03;;;9.90;99.90;;;;;;5001981;28;20438;-83
2023/02/03 08:28:06;;;;;;;66.97;8.10;;;9.90;99.90;;;;;;5001118;28;20242;-83
2023/02/03 08:30:32;;;;;;;67.20;7.60;;;9.90;99.90;;;;;;5001744;28;20297;-83
2023/02/03 08:32:58;;;;;;;66.77;7.20;;;9.90;99.90;;;;;;5001788;28;20175;-83
2023/02/03 08:35:24;;;;;;;65.23;6.30;;;10.00;99.90;;;;;;5000777;28;20186;-83
2023/02/03 08:37:50;;;;;;;70.68;7.63;;;10.00;99.90;;;;;;5001255;28;20277;-83
2023/02/03 08:40:16;;;;;;;69.37;7.97;;;10.00;99.90;;;;;;4983609;28;20636;-83
2023/02/03 08:42:42;;;;;;;65.82;6.95;;;10.00;99.90;;;;;;5000995;28;20147;-83
2023/02/03 08:45:08;;;;;;;69.10;10.33;;;10.00;99.90;;;;;;4983711;28;20205;-83
2023/02/03 08:47:38;;;;;;;68.03;8.82;;;10.00;99.90;;;;;;4983257;28;20417;-84
2023/02/03 08:50:18;;;;;;;69.00;13.35;;;10.00;99.90;;;;;;4984725;28;20166;-84
2023/02/03 08:52:44;;;;;;;69.78;10.48;;;10.00;99.90;;;;;;4998212;28;20178;-83
2023/02/03 08:55:19;;;;;;;70.00;13.43;;;10.00;99.90;;;;;;4982456;28;20261;-81
2023/02/03 08:57:45;;;;;;;68.30;11.50;;;10.00;99.90;;;;;;4980296;28;20217;-81
2023/02/03 09:00:12;;;;;;;69.72;14.07;;;10.00;99.90;;;;;;5000526;28;20194;-83
2023/02/03 09:02:37;;;;;;;67.75;11.65;;;10.00;99.90;;;;;;4999765;28;20169;-82
2023/02/03 09:05:03;;;;;;;69.83;10.57;;;10.00;99.90;;;;;;5001446;28;20162;-83
2023/02/03 09:07:29;;;;;;;71.55;11.35;;;9.90;99.90;;;;;;4983393;28;20171;-82
2023/02/03 09:09:55;;;;;;;71.87;9.60;;;9.90;99.90;;;;;;5000166;28;20257;-83
2023/02/03 09:12:20;;;;;;;67.03;7.17;;;9.90;99.90;;;;;;4983264;28;20201;-82
2023/02/03 09:14:46;;;;;;;69.17;13.10;;;9.90;99.90;;;;;;4983219;28;20198;-83
2023/02/03 09:17:11;;;;;;;71.00;13.80;;;9.90;99.90;;;;;;5001109;28;20186;-83
2023/02/03 09:19:37;;;;;;;75.07;14.23;;;9.90;99.90;;;;;;5000394;28;20171;-82
2023/02/03 09:22:03;;;;;;;69.87;9.27;;;9.90;99.90;;;;;;5000287;28;20190;-83
2023/02/03 09:24:29;;;;;;;69.45;12.43;;;9.90;99.90;;;;;;5000474;28;20197;-84
2023/02/03 09:26:55;;;;;;;68.63;9.70;;;9.90;99.90;;;;;;4982725;28;20273;-82
2023/02/03 09:29:22;;;;;;;67.75;13.98;;;9.90;99.90;;;;;;5060419;23;20516;-83
2023/02/03 09:31:51;;;;;;;69.82;9.77;;;9.80;99.90;;;;;;4999399;28;20662;-83
2023/02/03 09:34:18;;;;;;;66.78;8.63;;;9.80;99.90;;;;;;5000118;28;20165;-83
2023/02/03 09:36:44;;;;;;;66.45;10.98;;;9.80;99.90;;;;;;4999945;28;20193;-83
2023/02/03 09:39:09;;;;;;;71.63;12.90;;;9.80;99.90;;;;;;5000215;28;20162;-83
2023/02/03 09:41:50;;;;;;;72.13;7.83;;;9.90;99.90;;;;;;5000163;28;20186;-83
2023/02/03 09:44:37;;;;;;;69.75;9.88;;;9.90;99.90;;;;;;4999570;28;20174;-83
2023/02/03 09:47:24;;;;;;;71.25;12.60;;;9.80;99.90;;;;;;4999085;28;20182;-82
2023/02/03 09:50:11;;;;;;;77.15;25.83;;;9.90;99.90;;;;;;4997330;28;20182;-81
2023/02/03 09:52:39;;;;;;;69.15;14.13;;;9.90;99.90;;;;;;4998207;28;20218;-83
2023/02/03 09:55:19;;;;;;;76.32;15.55;;;9.90;99.90;;;;;;4981804;28;20198;-83
2023/02/03 09:57:55;;;;;;;83.13;12.07;;;9.90;99.90;;;;;;4982479;28;20202;-83
2023/02/03 10:00:30;;;;;;;77.60;23.55;;;9.90;99.90;;;;;;4982768;28;20158;-84
2023/02/03 10:03:06;;;;;;;72.70;14.60;;;9.90;99.90;;;;;;4999525;28;20158;-83
2023/02/03 10:05:31;;;;;;;69.63;11.80;;;9.90;99.90;;;;;;4999546;28;20208;-83
2023/02/03 10:08:35;;;;;;;75.00;10.77;;;9.90;99.90;;;;;;4999760;28;20221;-83
2023/02/03 10:11:21;;;;;;;75.18;20.10;;;9.90;99.90;;;;;;4981992;28;20190;-83
2023/02/03 10:14:07;;;;;;;75.28;11.07;;;9.80;99.90;;;;;;5000314;28;20170;-81
2023/02/03 10:16:42;;;;;;;71.78;11.15;;;9.70;99.90;;;;;;4981717;28;20186;-83
2023/02/03 10:19:18;;;;;;;79.70;19.52;;;9.80;99.90;;;;;;4999032;28;20610;-83
2023/02/03 10:21:51;;;;;;;74.43;19.75;;;9.80;99.90;;;;;;4981522;28;20240;-83
2023/02/03 10:24:25;;;;;;;70.47;9.77;;;9.70;99.90;;;;;;4981858;28;20173;-83
2023/02/03 10:26:51;;;;;;;75.07;10.60;;;9.60;99.90;;;;;;4998853;28;20154;-83
2023/02/03 10:29:34;;;;;;;72.95;15.05;;;9.70;99.90;;;;;;4999886;28;20186;-83
2023/02/03 10:32:18;;;;;;;68.93;7.80;;;9.60;99.90;;;;;;4999458;28;20190;-85
2023/02/03 10:34:46;;;;;;;83.35;8.77;;;9.60;99.90;;;;;;4998872;28;20154;-83
2023/02/03 10:37:24;;;;;;;69.57;8.50;;;9.60;99.90;;;;;;4981860;28;20202;-83
2023/02/03 10:39:51;;;;;;;68.63;7.78;;;9.60;99.90;;;;;;4999354;28;20213;-83
2023/02/03 10:42:18;;;;;;;68.30;8.30;;;9.60;99.90;;;;;;4999136;28;20334;-83
2023/02/03 10:44:48;;;;;;;70.93;8.38;;;9.50;99.90;;;;;;4981980;28;20171;-84
2023/02/03 10:47:33;;;;;;;72.55;9.20;;;9.50;99.90;;;;;;4999367;28;20167;-83
2023/02/03 10:50:06;;;;;;;70.82;8.50;;;9.50;99.90;;;;;;4999445;28;20162;-84
2023/02/03 10:52:35;;;;;;;69.40;8.75;;;9.50;99.90;;;;;;4999107;28;20213;-83
2023/02/03 10:55:06;;;;;;;68.38;9.48;;;9.50;99.90;;;;;;4999308;28;20166;-83
2023/02/03 10:57:35;;;;;;;69.20;7.43;;;9.50;99.90;;;;;;4999682;28;20190;-84
2023/02/03 11:00:22;;;;;;;70.00;9.77;;;9.50;99.90;;;;;;4981802;28;20174;-84
2023/02/03 11:03:05;;;;;;;66.35;7.20;;;9.50;99.90;;;;;;4981735;28;20162;-84
2023/02/03 11:05:30;;;;;;;68.30;5.93;;;9.50;99.90;;;;;;4999643;28;20162;-83
2023/02/03 11:07:56;;;;;;;67.30;7.37;;;9.60;99.90;;;;;;4985779;28;20170;-84
2023/02/03 11:10:34;;;;;;;71.43;6.70;;;9.60;99.90;;;;;;4984906;28;20195;-84
2023/02/03 11:13:21;;;;;;;70.60;7.78;;;9.60;99.90;;;;;;4985705;28;20213;-84
2023/02/03 11:15:59;;;;;;;73.30;7.72;;;9.50;99.90;;;;;;5003022;28;20155;-83
2023/02/03 11:18:30;;;;;;;71.35;7.60;;;9.60;99.90;;;;;;5002100;28;20223;-84
2023/02/03 11:20:57;;;;;;;70.43;9.52;;;9.60;99.90;;;;;;4985238;28;20185;-84
2023/02/03 11:23:23;;;;;;;70.38;10.60;;;9.60;99.90;;;;;;5002272;28;20154;-83
2023/02/03 11:25:49;;;;;;;70.22;7.18;;;9.60;99.90;;;;;;5002189;28;20177;-83
2023/02/03 11:28:14;;;;;;;72.17;9.03;;;9.60;99.90;;;;;;5002335;28;20181;-83
2023/02/03 11:30:41;;;;;;;69.30;6.97;;;9.60;99.90;;;;;;5002592;28;20426;-83
2023/02/03 11:33:18;;;;;;;74.68;8.93;;;9.70;99.90;;;;;;5001853;28;20402;-83
2023/02/03 11:35:58;;;;;;;69.15;9.68;;;9.70;99.90;;;;;;5001842;28;20625;-83
2023/02/03 11:38:35;;;;;;;73.55;9.70;;;9.70;99.90;;;;;;5001701;28;20185;-83
2023/02/03 11:41:01;;;;;;;70.57;9.73;;;9.80;99.90;;;;;;4985114;28;20189;-83
2023/02/03 11:43:28;;;;;;;72.88;9.85;;;9.80;99.90;;;;;;5002439;28;20167;-83
2023/02/03 11:46:07;;;;;;;70.30;8.80;;;9.80;99.90;;;;;;4984492;28;20170;-83
2023/02/03 11:48:59;;;;;;;71.97;8.35;;;9.90;99.90;;;;;;5002133;28;20509;-84
2023/02/03 11:51:34;;;;;;;72.65;7.30;;;9.90;99.90;;;;;;4971831;28;20226;-84
2023/02/03 11:54:24;;;;;;;70.05;8.65;;;9.80;99.90;;;;;;5001910;28;20210;-83
2023/02/03 11:57:00;;;;;;;75.60;13.52;;;9.90;99.90;;;;;;4985114;28;20273;-83
2023/02/03 11:59:38;;;;;;;72.68;17.67;;;9.80;99.90;;;;;;4984711;28;20217;-84
2023/02/03 12:02:08;;;;;;;73.65;8.65;;;9.80;99.90;;;;;;4984908;28;20190;-84
2023/02/03 12:04:49;;;;;;;77.55;8.00;;;9.80;99.90;;;;;;4984420;28;20162;-83
2023/02/03 12:07:53;;;;;;;73.22;9.05;;;9.80;99.90;;;;;;5001624;28;20170;-84
2023/02/03 12:11:04;;;;;;;73.38;8.90;;;9.90;99.90;;;;;;4984534;28;20210;-83
2023/02/03 12:14:18;;;;;;;68.22;8.05;;;10.00;99.90;;;;;;4984011;28;20167;-83
2023/02/03 12:16:55;;;;;;;71.70;10.63;;;10.10;99.90;;;;;;5001062;28;20201;-84
2023/02/03 12:19:35;;;;;;;70.95;9.45;;;10.10;99.90;;;;;;5001672;28;20162;-83
2023/02/03 12:22:08;;;;;;;73.65;9.00;;;10.10;99.90;;;;;;5001835;28;20193;-84
2023/02/03 12:24:37;;;;;;;73.10;8.32;;;10.10;99.90;;;;;;4984029;28;20163;-84
2023/02/03 12:27:38;;;;;;;69.18;8.65;;;10.10;99.90;;;;;;4984345;28;20175;-83
2023/02/03 12:30:23;;;;;;;75.65;9.13;;;10.00;99.90;;;;;;4887648;29;20178;-84
2023/02/03 12:33:18;;;;;;;76.60;8.63;;;10.10;99.90;;;;;;4976822;28;20182;-83
2023/02/03 12:36:15;;;;;;;91.95;41.25;;;10.10;99.90;;;;;;4978919;28;20213;-85
2023/02/03 12:38:48;;;;;;;71.28;9.65;;;10.10;99.90;;;;;;4983920;28;20166;-83
2023/02/03 12:41:27;;;;;;;69.00;7.47;;;10.10;99.90;;;;;;5001282;28;20182;-83
2023/02/03 12:44:00;;;;;;;75.95;9.65;;;10.00;99.90;;;;;;4983698;28;20249;-83
2023/02/03 12:46:48;;;;;;;72.57;9.73;;;10.10;99.90;;;;;;5000672;28;20151;-83
2023/02/03 12:49:14;;;;;;;73.32;9.10;;;10.10;99.90;;;;;;4982933;28;20595;-83
2023/02/03 12:52:02;;;;;;;72.57;9.20;;;10.10;99.90;;;;;;5000296;28;20261;-83
2023/02/03 12:55:00;;;;;;;72.43;9.85;;;10.10;99.90;;;;;;5000570;28;20386;-84
2023/02/03 12:57:38;;;;;;;77.88;9.30;;;10.10;99.90;;;;;;4930452;28;20242;-83
2023/02/03 13:00:29;;;;;;;70.88;9.90;;;10.10;99.90;;;;;;5000687;28;20260;-84
2023/02/03 13:03:01;;;;;;;72.03;9.25;;;10.10;99.90;;;;;;4983130;28;20170;-83